createdAt,value
2018-08-22T00:01:15.087Z,22.50
2018-08-22T00:03:44.198Z,22.44
2018-08-22T00:06:13.069Z,22.41
2018-08-22T00:08:44.769Z,22.35
2018-08-22T00:11:14.475Z,22.28
2018-08-22T00:13:43.989Z,22.32
2018-08-22T00:16:12.882Z,22.31
2018-08-22T00:18:41.424Z,22.30
2018-08-22T00:21:09.969Z,22.36
2018-08-22T00:23:38.491Z,22.26
2018-08-22T00:26:07.263Z,22.38
2018-08-22T00:28:35.759Z,22.36
2018-08-22T00:31:04.317Z,22.44
2018-08-22T00:33:33.169Z,22.51
2018-08-22T00:36:01.701Z,22.44
2018-08-22T00:38:30.211Z,22.18
2018-08-22T00:40:59.014Z,22.26
2018-08-22T00:43:27.567Z,22.28
2018-08-22T00:48:23.789Z,22.15
2018-08-22T00:50:53.280Z,22.17
2018-08-22T00:53:21.780Z,22.11
2018-08-22T00:55:50.799Z,22.06
2018-08-22T00:58:19.329Z,22.10
2018-08-22T01:00:47.885Z,22.00
2018-08-22T01:03:16.405Z,21.91
2018-08-22T01:05:45.153Z,22.10
2018-08-22T01:08:14.325Z,22.12
2018-08-22T01:10:42.878Z,22.00
2018-08-22T01:13:11.636Z,22.15
2018-08-22T01:18:07.643Z,21.83
2018-08-22T01:20:36.353Z,21.85
2018-08-22T01:23:04.901Z,21.71
2018-08-22T01:25:33.452Z,21.59
2018-08-22T01:28:02.905Z,21.58
2018-08-22T01:30:31.477Z,21.41
2018-08-22T01:33:00.038Z,21.41
2018-08-22T01:35:29.111Z,21.41
2018-08-22T01:37:57.649Z,21.32
2018-08-22T01:40:26.773Z,21.40
2018-08-22T01:42:55.567Z,21.46
2018-08-22T01:45:24.080Z,21.54
2018-08-22T01:47:52.640Z,21.53
2018-08-22T01:50:21.281Z,21.51
2018-08-22T01:52:49.828Z,21.50
2018-08-22T01:55:18.676Z,21.46
2018-08-22T01:57:47.244Z,21.48
2018-08-22T02:00:16.378Z,21.54
2018-08-22T02:02:44.921Z,21.49
2018-08-22T02:05:13.457Z,21.36
2018-08-22T02:07:42.045Z,20.94
2018-08-22T02:10:10.553Z,20.99
2018-08-22T02:12:39.614Z,21.01
2018-08-22T02:15:08.490Z,21.11
2018-08-22T02:17:37.516Z,21.24
2018-08-22T02:20:06.028Z,21.30
2018-08-22T02:22:34.893Z,21.25
2018-08-22T02:25:03.521Z,21.18
2018-08-22T02:27:32.226Z,21.17
2018-08-22T02:30:00.741Z,21.15
2018-08-22T02:32:29.306Z,21.15
2018-08-22T02:34:57.911Z,21.14
2018-08-22T02:37:26.477Z,21.15
2018-08-22T02:39:54.985Z,21.13
2018-08-22T02:42:23.543Z,21.13
2018-08-22T02:44:52.360Z,21.12
2018-08-22T02:47:20.919Z,20.89
2018-08-22T02:49:49.786Z,20.77
2018-08-22T02:52:18.342Z,20.63
2018-08-22T02:54:47.129Z,20.53
2018-08-22T02:57:15.659Z,20.41
2018-08-22T02:59:44.193Z,20.34
2018-08-22T03:02:14.180Z,20.32
2018-08-22T03:04:42.695Z,20.32
2018-08-22T03:07:11.630Z,20.34
2018-08-22T03:09:40.141Z,20.14
2018-08-22T03:12:08.714Z,20.10
2018-08-22T03:14:37.281Z,20.12
2018-08-22T03:17:05.847Z,20.05
2018-08-22T03:19:34.344Z,20.03
2018-08-22T03:22:02.875Z,20.09
2018-08-22T03:24:31.395Z,20.09
2018-08-22T03:27:00.278Z,20.05
2018-08-22T03:29:29.304Z,20.11
2018-08-22T03:31:58.104Z,20.10
2018-08-22T03:34:26.630Z,20.04
2018-08-22T03:36:55.170Z,19.91
2018-08-22T03:39:24.011Z,19.83
2018-08-22T03:41:52.543Z,19.82
2018-08-22T03:44:21.092Z,19.61
2018-08-22T03:46:50.451Z,19.70
2018-08-22T03:49:18.991Z,19.79
2018-08-22T03:51:48.195Z,19.54
2018-08-22T03:54:17.065Z,19.45
2018-08-22T03:56:45.597Z,19.39
2018-08-22T03:59:14.536Z,19.52
2018-08-22T04:01:44.339Z,19.38
2018-08-22T04:04:13.234Z,19.44
2018-08-22T04:06:41.746Z,19.54
2018-08-22T04:09:10.315Z,19.36
2018-08-22T04:11:39.199Z,19.53
2018-08-22T04:14:07.786Z,19.62
2018-08-22T04:16:36.628Z,19.56
2018-08-22T04:19:06.314Z,19.71
2018-08-22T04:21:35.852Z,19.57
2018-08-22T04:24:04.405Z,19.61
2018-08-22T04:26:32.933Z,19.63
2018-08-22T04:29:01.483Z,19.67
2018-08-22T04:31:30.282Z,19.64
2018-08-22T04:33:58.835Z,19.50
2018-08-22T04:36:27.369Z,19.49
2018-08-22T04:38:55.922Z,19.53
2018-08-22T04:41:24.474Z,19.57
2018-08-22T04:43:54.114Z,19.63
2018-08-22T04:46:23.034Z,19.58
2018-08-22T04:48:51.557Z,19.56
2018-08-22T04:51:20.324Z,19.65
2018-08-22T04:53:48.892Z,19.64
2018-08-22T04:56:17.896Z,19.58
2018-08-22T04:58:46.675Z,19.58
2018-08-22T05:01:15.197Z,19.51
2018-08-22T05:03:43.847Z,19.54
2018-08-22T05:06:12.740Z,19.56
2018-08-22T05:08:41.544Z,19.65
2018-08-22T05:11:10.422Z,19.45
2018-08-22T05:13:39.214Z,19.29
2018-08-22T05:16:07.746Z,19.44
2018-08-22T05:18:36.293Z,19.47
2018-08-22T05:21:05.285Z,19.63
2018-08-22T05:23:33.850Z,19.76
2018-08-22T05:26:02.415Z,19.91
2018-08-22T05:28:31.767Z,20.04
2018-08-22T05:31:00.287Z,19.98
2018-08-22T05:33:29.024Z,20.07
2018-08-22T05:35:57.579Z,20.13
2018-08-22T05:38:26.419Z,20.16
2018-08-22T05:40:54.955Z,20.25
2018-08-22T05:43:23.751Z,20.20
2018-08-22T05:45:52.292Z,20.33
2018-08-22T05:48:20.860Z,20.41
2018-08-22T05:50:50.584Z,20.44
2018-08-22T05:53:19.103Z,20.51
2018-08-22T05:55:47.637Z,20.34
2018-08-22T05:58:16.177Z,20.30
2018-08-22T06:00:44.719Z,20.38
2018-08-22T06:03:13.805Z,20.53
2018-08-22T06:05:42.360Z,20.29
2018-08-22T06:08:10.925Z,20.50
2018-08-22T06:10:39.494Z,20.52
2018-08-22T06:13:08.244Z,20.61
2018-08-22T06:15:37.632Z,20.53
2018-08-22T06:18:06.157Z,20.64
2018-08-22T06:20:35.074Z,20.85
2018-08-22T06:23:03.615Z,21.30
2018-08-22T06:25:32.170Z,21.50
2018-08-22T06:28:00.704Z,21.58
2018-08-22T06:30:29.288Z,21.58
2018-08-22T06:32:57.856Z,21.40
2018-08-22T06:35:26.368Z,21.51
2018-08-22T06:37:54.893Z,21.59
2018-08-22T06:40:23.748Z,21.59
2018-08-22T06:42:52.281Z,21.66
2018-08-22T06:45:21.120Z,21.78
2018-08-22T06:47:49.970Z,21.87
2018-08-22T06:50:18.827Z,21.91
2018-08-22T06:52:47.302Z,22.08
2018-08-22T06:55:15.867Z,22.15
2018-08-22T06:57:44.666Z,22.18
2018-08-22T07:00:13.205Z,21.95
2018-08-22T07:02:42.392Z,22.03
2018-08-22T07:05:10.981Z,22.26
2018-08-22T07:07:39.504Z,22.26
2018-08-22T07:10:08.058Z,22.61
2018-08-22T07:12:36.567Z,22.84
2018-08-22T07:15:06.725Z,23.01
2018-08-22T07:17:35.290Z,23.09
2018-08-22T07:20:03.979Z,23.26
2018-08-22T07:22:32.488Z,23.33
2018-08-22T07:25:01.077Z,23.38
2018-08-22T07:27:29.606Z,23.46
2018-08-22T07:29:58.192Z,23.51
2018-08-22T07:32:26.768Z,23.54
2018-08-22T07:34:55.326Z,23.68
2018-08-22T07:37:23.897Z,23.95
2018-08-22T07:39:53.374Z,24.16
2018-08-22T07:42:21.922Z,24.23
2018-08-22T07:44:50.503Z,24.30
2018-08-22T07:47:19.034Z,24.55
2018-08-22T07:49:47.605Z,24.55
2018-08-22T07:52:16.118Z,24.54
2018-08-22T07:54:45.625Z,24.59
2018-08-22T07:57:15.631Z,24.55
2018-08-22T07:59:44.521Z,24.81
2018-08-22T08:02:13.070Z,24.92
2018-08-22T08:04:41.654Z,25.01
2018-08-22T08:07:10.204Z,25.16
2018-08-22T08:09:38.742Z,25.33
2018-08-22T08:12:07.312Z,25.10
2018-08-22T08:14:36.980Z,25.34
2018-08-22T08:17:05.674Z,25.48
2018-08-22T08:19:34.398Z,25.76
2018-08-22T08:22:02.964Z,25.59
2018-08-22T08:24:31.464Z,25.58
2018-08-22T08:27:00.011Z,25.91
2018-08-22T08:29:28.531Z,26.05
2018-08-22T08:31:57.345Z,26.31
2018-08-22T08:34:25.858Z,26.35
2018-08-22T08:36:54.410Z,26.50
2018-08-22T08:39:23.312Z,26.03
2018-08-22T08:41:51.881Z,26.23
2018-08-22T08:44:21.072Z,26.45
2018-08-22T08:46:50.482Z,26.82
2018-08-22T08:49:19.040Z,26.75
2018-08-22T08:51:58.001Z,27.00
2018-08-22T08:54:26.842Z,26.47
2018-08-22T08:56:55.981Z,26.84
2018-08-22T08:59:24.529Z,27.09
2018-08-22T09:01:53.129Z,26.67
2018-08-22T09:04:21.918Z,26.96
2018-08-22T09:06:51.120Z,27.13
2018-08-22T09:09:19.589Z,26.87
2018-08-22T09:11:54.230Z,27.35
2018-08-22T09:14:25.252Z,27.64
2018-08-22T09:16:53.896Z,27.21
2018-08-22T09:19:22.686Z,27.27
2018-08-22T09:21:51.245Z,26.90
2018-08-22T09:24:20.341Z,27.39
2018-08-22T09:26:48.887Z,27.62
2018-08-22T09:29:17.407Z,27.80
2018-08-22T09:31:46.292Z,27.93
2018-08-22T09:34:14.821Z,27.48
2018-08-22T09:36:43.670Z,27.63
2018-08-22T09:39:13.688Z,27.82
2018-08-22T09:41:42.450Z,27.82
2018-08-22T09:44:11.204Z,27.66
2018-08-22T09:46:40.553Z,27.46
2018-08-22T09:49:11.076Z,27.86
2018-08-22T09:51:39.645Z,27.93
2018-08-22T09:54:08.155Z,28.49
2018-08-22T09:56:36.953Z,28.96
2018-08-22T09:59:05.827Z,29.19
2018-08-22T10:01:40.463Z,28.99
2018-08-22T10:04:09.327Z,29.37
2018-08-22T10:06:43.561Z,29.17
2018-08-22T10:09:13.850Z,29.42
2018-08-22T10:11:43.484Z,29.88
2018-08-22T10:14:12.605Z,30.04
2018-08-22T10:16:41.204Z,30.12
2018-08-22T10:19:10.209Z,30.38
2018-08-22T10:21:38.783Z,30.24
2018-08-22T10:24:08.926Z,29.67
2018-08-22T10:26:37.512Z,29.07
2018-08-22T10:29:06.095Z,28.95
2018-08-22T10:31:34.641Z,28.70
2018-08-22T10:34:03.801Z,29.03
2018-08-22T10:36:32.721Z,29.90
2018-08-22T10:39:01.271Z,30.00
2018-08-22T10:41:29.810Z,29.84
2018-08-22T10:43:58.351Z,30.43
2018-08-22T10:46:27.737Z,30.11
2018-08-22T10:48:56.252Z,30.40
2018-08-22T10:51:25.081Z,30.34
2018-08-22T10:53:54.273Z,30.84
2018-08-22T10:56:22.803Z,31.51
2018-08-22T10:58:51.334Z,31.80
2018-08-22T11:01:20.293Z,31.37
2018-08-22T11:03:48.808Z,30.30
2018-08-22T11:06:17.364Z,30.69
2018-08-22T11:08:46.507Z,30.74
2018-08-22T11:11:15.265Z,30.05
2018-08-22T11:13:44.319Z,30.84
2018-08-22T11:16:12.918Z,30.86
2018-08-22T11:18:41.436Z,31.40
2018-08-22T11:21:21.927Z,30.70
2018-08-22T11:24:01.732Z,31.62
2018-08-22T11:26:41.287Z,32.12
2018-08-22T11:29:20.796Z,31.71
2018-08-22T11:32:00.824Z,32.02
2018-08-22T11:34:40.348Z,32.59
2018-08-22T11:37:10.214Z,31.30
2018-08-22T11:39:38.789Z,32.33
2018-08-22T11:42:08.197Z,32.29
2018-08-22T11:44:37.097Z,32.37
2018-08-22T11:47:05.710Z,32.52
2018-08-22T11:49:34.241Z,32.60
2018-08-22T11:52:02.853Z,32.71
2018-08-22T11:54:32.470Z,33.63
2018-08-22T11:57:01.508Z,33.96
2018-08-22T11:59:30.458Z,33.83
2018-08-22T12:01:59.025Z,34.03
2018-08-22T12:04:27.922Z,34.04
2018-08-22T12:06:57.121Z,33.96
2018-08-22T12:09:25.650Z,33.70
2018-08-22T12:11:54.177Z,33.72
2018-08-22T12:14:22.736Z,33.73
2018-08-22T12:16:51.262Z,33.04
2018-08-22T12:19:20.069Z,33.38
2018-08-22T12:21:48.889Z,33.36
2018-08-22T12:24:17.883Z,33.57
2018-08-22T12:26:46.364Z,34.45
2018-08-22T12:29:14.913Z,33.70
2018-08-22T12:31:44.198Z,34.20
2018-08-22T12:34:12.757Z,32.41
2018-08-22T12:36:41.744Z,33.44
2018-08-22T12:39:10.299Z,33.98
2018-08-22T12:41:39.484Z,33.91
2018-08-22T12:44:08.030Z,34.90
2018-08-22T12:46:36.544Z,34.67
2018-08-22T12:49:05.863Z,34.25
2018-08-22T12:51:34.732Z,33.30
2018-08-22T12:54:03.302Z,32.32
2018-08-22T12:56:32.368Z,32.17
2018-08-22T12:59:00.920Z,33.76
2018-08-22T13:01:29.452Z,34.39
2018-08-22T13:03:58.011Z,34.18
2018-08-22T13:06:26.866Z,32.96
2018-08-22T13:08:56.569Z,32.43
2018-08-22T13:11:25.123Z,32.63
2018-08-22T13:13:53.964Z,34.46
2018-08-22T13:16:22.484Z,34.54
2018-08-22T13:18:51.044Z,34.13
2018-08-22T13:21:20.692Z,35.28
2018-08-22T13:23:49.478Z,35.87
2018-08-22T13:26:18.867Z,35.00
2018-08-22T13:28:48.689Z,35.12
2018-08-22T13:31:17.564Z,34.70
2018-08-22T13:33:46.123Z,34.50
2018-08-22T13:36:14.742Z,34.60
2018-08-22T13:38:43.492Z,35.33
2018-08-22T13:41:12.003Z,35.50
2018-08-22T13:43:40.561Z,36.40
2018-08-22T13:46:09.319Z,34.07
2018-08-22T13:48:37.877Z,34.42
2018-08-22T13:51:06.587Z,34.88
2018-08-22T13:53:35.516Z,35.61
2018-08-22T13:56:04.404Z,35.75
2018-08-22T13:58:33.266Z,35.34
2018-08-22T14:01:02.100Z,35.84
2018-08-22T14:03:30.926Z,35.71
2018-08-22T14:06:01.176Z,35.83
2018-08-22T14:08:29.925Z,35.38
2018-08-22T14:10:58.744Z,33.06
2018-08-22T14:13:27.348Z,33.91
2018-08-22T14:15:56.295Z,34.65
2018-08-22T14:18:25.567Z,35.23
2018-08-22T14:20:54.116Z,35.54
2018-08-22T14:23:22.671Z,35.48
2018-08-22T14:25:51.226Z,35.73
2018-08-22T14:28:19.818Z,36.21
2018-08-22T14:30:48.990Z,36.44
2018-08-22T14:33:17.551Z,36.21
2018-08-22T14:35:46.070Z,36.11
2018-08-22T14:38:14.645Z,35.62
2018-08-22T14:40:43.195Z,36.08
2018-08-22T14:43:12.047Z,36.22
2018-08-22T14:45:40.643Z,37.16
2018-08-22T14:48:10.206Z,37.22
2018-08-22T14:50:38.762Z,37.06
2018-08-22T14:53:07.738Z,37.48
2018-08-22T14:55:36.352Z,35.93
2018-08-22T14:58:05.506Z,36.39
2018-08-22T15:00:34.058Z,36.23
2018-08-22T15:03:02.965Z,35.46
2018-08-22T15:05:31.883Z,35.69
2018-08-22T15:08:00.786Z,36.06
2018-08-22T15:10:29.574Z,33.61
2018-08-22T15:12:58.731Z,33.90
2018-08-22T15:15:27.329Z,33.33
2018-08-22T15:17:56.099Z,33.49
2018-08-22T15:20:24.629Z,33.67
2018-08-22T15:22:53.398Z,34.82
2018-08-22T15:25:21.964Z,35.44
2018-08-22T15:27:50.517Z,36.10
2018-08-22T15:30:19.407Z,35.93
2018-08-22T15:32:47.942Z,36.14
2018-08-22T15:35:17.324Z,36.22
2018-08-22T15:37:45.857Z,35.64
2018-08-22T15:40:14.429Z,35.44
2018-08-22T15:42:43.450Z,35.79
2018-08-22T15:45:12.443Z,36.09
2018-08-22T15:47:41.332Z,35.58
2018-08-22T15:50:13.640Z,36.05
2018-08-22T15:52:43.693Z,36.21
2018-08-22T15:55:15.526Z,36.37
2018-08-22T15:57:58.231Z,35.97
2018-08-22T16:00:53.156Z,36.05
2018-08-22T16:03:22.649Z,35.78
2018-08-22T16:05:52.057Z,35.95
2018-08-22T16:08:23.117Z,35.96
2018-08-22T16:10:52.174Z,35.64
2018-08-22T16:13:25.764Z,35.83
2018-08-22T16:15:55.930Z,35.87
2018-08-22T16:18:24.490Z,35.78
2018-08-22T16:21:02.528Z,35.94
2018-08-22T16:23:33.725Z,35.70
2018-08-22T16:26:03.572Z,36.23
2018-08-22T16:28:43.138Z,36.56
2018-08-22T16:31:12.066Z,36.89
2018-08-22T16:33:40.573Z,37.28
2018-08-22T16:36:10.957Z,37.59
2018-08-22T16:38:39.816Z,37.44
2018-08-22T16:41:08.352Z,37.84
2018-08-22T16:43:47.018Z,38.31
2018-08-22T16:46:16.808Z,38.63
2018-08-22T16:48:48.597Z,38.56
2018-08-22T16:51:17.284Z,38.41
2018-08-22T16:53:59.715Z,38.40
2018-08-22T16:56:28.994Z,38.81
2018-08-22T16:59:03.134Z,38.87
2018-08-22T17:01:31.774Z,38.92
2018-08-22T17:04:01.336Z,38.57
2018-08-22T17:06:29.902Z,38.37
2018-08-22T17:08:59.322Z,38.63
2018-08-22T17:11:28.287Z,38.80
2018-08-22T17:13:57.045Z,38.92
2018-08-22T17:16:26.009Z,39.17
2018-08-22T17:18:54.563Z,38.51
2018-08-22T17:21:23.455Z,38.31
2018-08-22T17:23:52.392Z,37.39
2018-08-22T17:26:23.412Z,37.23
2018-08-22T17:28:55.070Z,36.55
2018-08-22T17:31:24.998Z,36.07
2018-08-22T17:33:58.657Z,35.79
2018-08-22T17:36:27.239Z,35.67
2018-08-22T17:38:56.964Z,35.74
2018-08-22T17:41:27.826Z,35.68
2018-08-22T17:44:16.866Z,35.90
2018-08-22T17:46:49.733Z,35.99
2018-08-22T17:49:18.550Z,35.73
2018-08-22T17:52:03.965Z,35.29
2018-08-22T17:54:33.516Z,35.20
2018-08-22T17:57:21.559Z,35.08
2018-08-22T17:59:50.593Z,35.49
2018-08-22T18:02:19.534Z,35.58
2018-08-22T18:04:54.280Z,35.41
2018-08-22T18:07:24.266Z,35.41
2018-08-22T18:09:53.166Z,35.40
2018-08-22T18:12:24.691Z,35.26
2018-08-22T18:14:53.311Z,35.02
2018-08-22T18:17:22.774Z,34.39
2018-08-22T18:19:52.622Z,34.33
2018-08-22T18:22:21.281Z,33.97
2018-08-22T18:24:54.535Z,33.58
2018-08-22T18:27:23.694Z,33.04
2018-08-22T18:29:52.303Z,32.92
2018-08-22T18:32:21.161Z,32.64
2018-08-22T18:35:14.709Z,32.30
2018-08-22T18:37:44.186Z,32.16
2018-08-22T18:40:20.241Z,31.80
2018-08-22T18:42:52.019Z,31.81
2018-08-22T18:45:21.195Z,31.52
2018-08-22T18:47:50.491Z,31.26
2018-08-22T18:50:19.277Z,31.02
2018-08-22T18:52:49.401Z,31.04
2018-08-22T18:55:18.082Z,30.87
2018-08-22T18:57:47.025Z,30.72
2018-08-22T19:00:16.269Z,30.49
2018-08-22T19:02:45.132Z,30.26
2018-08-22T19:05:30.282Z,30.32
2018-08-22T19:08:15.734Z,30.23
2018-08-22T19:10:46.620Z,30.18
2018-08-22T19:13:16.282Z,30.28
2018-08-22T19:15:47.857Z,29.86
2018-08-22T19:18:16.731Z,29.91
2018-08-22T19:20:45.275Z,29.60
2018-08-22T19:23:13.838Z,29.42
2018-08-22T19:25:44.813Z,29.41
2018-08-22T19:28:14.136Z,29.22
2018-08-22T19:30:42.731Z,29.17
2018-08-22T19:33:15.008Z,29.47
2018-08-22T19:35:44.187Z,29.48
2018-08-22T19:38:15.073Z,28.80
2018-08-22T19:40:44.366Z,28.65
2018-08-22T19:43:13.477Z,28.67
2018-08-22T19:45:42.329Z,28.65
2018-08-22T19:48:11.246Z,28.50
2018-08-22T19:50:40.109Z,28.68
2018-08-22T19:53:08.749Z,28.70
2018-08-22T19:55:38.183Z,28.49
2018-08-22T19:58:06.989Z,28.40
2018-08-22T20:00:35.877Z,28.20
2018-08-22T20:03:04.663Z,28.02
2018-08-22T20:06:04.704Z,27.94
2018-08-22T20:08:35.689Z,27.86
2018-08-22T20:11:04.387Z,27.82
2018-08-22T20:13:45.749Z,27.62
2018-08-22T20:16:14.381Z,27.70
2018-08-22T20:18:42.927Z,27.73
2018-08-22T20:21:16.151Z,27.68
2018-08-22T20:23:45.784Z,27.47
2018-08-22T20:26:14.431Z,27.33
2018-08-22T20:28:47.539Z,27.22
2018-08-22T20:31:16.448Z,27.15
2018-08-22T20:33:56.014Z,27.14
2018-08-22T20:36:24.610Z,27.05
2018-08-22T20:38:53.723Z,26.60
2018-08-22T20:41:22.953Z,26.03
2018-08-22T20:43:51.514Z,26.04
2018-08-22T20:46:20.071Z,26.11
2018-08-22T20:48:50.464Z,26.19
2018-08-22T20:51:19.444Z,26.13
2018-08-22T20:53:56.164Z,26.24
2018-08-22T20:56:24.792Z,26.18
2018-08-22T20:58:54.547Z,26.07
2018-08-22T21:01:23.726Z,26.05
2018-08-22T21:03:52.713Z,26.11
2018-08-22T21:06:21.677Z,26.20
2018-08-22T21:08:50.496Z,26.04
2018-08-22T21:11:19.067Z,25.74
2018-08-22T21:13:47.598Z,25.62
2018-08-22T21:16:16.182Z,25.40
2018-08-22T21:18:44.692Z,25.50
2018-08-22T21:21:21.644Z,25.53
2018-08-22T21:23:50.621Z,25.63
2018-08-22T21:26:34.844Z,25.78
2018-08-22T21:29:03.741Z,25.68
2018-08-22T21:31:33.795Z,25.53
2018-08-22T21:34:09.878Z,25.47
2018-08-22T21:36:40.775Z,25.58
2018-08-22T21:39:15.378Z,25.65
2018-08-22T21:41:46.328Z,25.51
2018-08-22T21:44:19.655Z,25.40
2018-08-22T21:46:58.061Z,25.14
2018-08-22T21:49:28.720Z,25.12
2018-08-22T21:52:04.430Z,25.05
2018-08-22T21:54:33.317Z,25.00
2018-08-22T21:57:02.402Z,25.07
2018-08-22T21:59:31.189Z,24.94
2018-08-22T22:02:06.850Z,25.06
2018-08-22T22:04:38.561Z,25.05
2018-08-22T22:07:08.440Z,25.19
2018-08-22T22:09:38.335Z,25.18
2018-08-22T22:12:12.433Z,24.92
2018-08-22T22:14:44.674Z,24.79
2018-08-22T22:17:13.248Z,24.86
2018-08-22T22:19:41.796Z,24.98
2018-08-22T22:22:11.366Z,24.95
2018-08-22T22:24:45.553Z,24.93
2018-08-22T22:27:14.159Z,24.86
2018-08-22T22:29:42.779Z,25.00
2018-08-22T22:32:12.004Z,24.92
2018-08-22T22:34:41.101Z,24.93
2018-08-22T22:37:10.360Z,24.80
2018-08-22T22:39:44.619Z,24.89
2018-08-22T22:42:21.662Z,24.75
2018-08-22T22:44:51.428Z,24.72
2018-08-22T22:47:25.124Z,24.68
2018-08-22T22:49:53.724Z,24.60
2018-08-22T22:52:30.120Z,24.49
2018-08-22T22:55:01.220Z,24.44
2018-08-22T22:57:35.289Z,24.32
2018-08-22T23:00:04.411Z,24.17
2018-08-22T23:02:33.617Z,24.27
2018-08-22T23:05:02.505Z,24.23
2018-08-22T23:07:38.351Z,24.08
2018-08-22T23:10:09.084Z,24.16
2018-08-22T23:12:39.569Z,24.16
2018-08-22T23:15:15.393Z,24.10
2018-08-22T23:17:44.482Z,24.12
2018-08-22T23:20:31.822Z,24.13
2018-08-22T23:23:01.778Z,24.09
2018-08-22T23:25:31.064Z,24.07
2018-08-22T23:27:59.624Z,24.01
2018-08-22T23:30:35.430Z,23.96
2018-08-22T23:33:04.024Z,23.82
2018-08-22T23:35:35.048Z,23.83
2018-08-22T23:38:05.394Z,23.67
2018-08-22T23:40:35.418Z,23.66
2018-08-22T23:43:04.004Z,23.72
2018-08-22T23:45:36.125Z,23.54
2018-08-22T23:48:05.460Z,23.56
2018-08-22T23:51:15.155Z,23.58
2018-08-22T23:53:49.220Z,23.53
2018-08-22T23:56:21.102Z,23.58
2018-08-22T23:58:50.359Z,23.69
